sensor_id;sensor_type;location;lat;lon;timestamp;temperature;humidity
48912;DHT22;34722;52.108;5.044;2022-09-20T00:01:31;11.50;99.90
48912;DHT22;34722;52.108;5.044;2022-09-20T00:03:59;11.50;99.90
48912;DHT22;34722;52.108;5.044;2022-09-20T00:06:30;11.50;99.90
48912;DHT22;34722;52.108;5.044;2022-09-20T00:08:56;11.60;99.90
48912;DHT22;34722;52.108;5.044;2022-09-20T00:11:26;11.60;99.90
48912;DHT22;34722;52.108;5.044;2022-09-20T00:13:54;11.60;99.90
48912;DHT22;34722;52.108;5.044;2022-09-20T00:16:30;11.60;99.90
48912;DHT22;34722;52.108;5.044;2022-09-20T00:18:57;11.60;99.90
48912;DHT22;34722;52.108;5.044;2022-09-20T00:21:28;11.60;99.90
48912;DHT22;34722;52.108;5.044;2022-09-20T00:23:55;11.50;99.90
48912;DHT22;34722;52.108;5.044;2022-09-20T00:26:22;11.50;99.90
48912;DHT22;34722;52.108;5.044;2022-09-20T00:28:49;11.50;99.90
48912;DHT22;34722;52.108;5.044;2022-09-20T00:31:16;11.40;99.90
48912;DHT22;34722;52.108;5.044;2022-09-20T00:33:42;11.30;99.90
48912;DHT22;34722;52.108;5.044;2022-09-20T00:36:26;11.20;99.90
48912;DHT22;34722;52.108;5.044;2022-09-20T00:38:56;11.10;99.90
48912;DHT22;34722;52.108;5.044;2022-09-20T00:41:22;11.00;99.90
48912;DHT22;34722;52.108;5.044;2022-09-20T00:43:48;10.90;99.90
48912;DHT22;34722;52.108;5.044;2022-09-20T00:46:36;10.90;99.90
48912;DHT22;34722;52.108;5.044;2022-09-20T00:49:36;11.00;99.90
48912;DHT22;34722;52.108;5.044;2022-09-20T00:52:00;11.00;99.90
48912;DHT22;34722;52.108;5.044;2022-09-20T00:54:26;11.10;99.90
48912;DHT22;34722;52.108;5.044;2022-09-20T00:56:53;11.20;99.90
48912;DHT22;34722;52.108;5.044;2022-09-20T00:59:26;11.30;99.90
48912;DHT22;34722;52.108;5.044;2022-09-20T01:04:43;11.30;99.90
48912;DHT22;34722;52.108;5.044;2022-09-20T01:07:12;11.40;99.90
48912;DHT22;34722;52.108;5.044;2022-09-20T01:09:39;11.40;99.90
48912;DHT22;34722;52.108;5.044;2022-09-20T01:12:11;11.50;99.90
48912;DHT22;34722;52.108;5.044;2022-09-20T01:14:39;11.50;99.90
48912;DHT22;34722;52.108;5.044;2022-09-20T01:17:07;11.50;99.90
48912;DHT22;34722;52.108;5.044;2022-09-20T01:19:36;11.60;99.90
48912;DHT22;34722;52.108;5.044;2022-09-20T01:22:11;11.60;99.90
48912;DHT22;34722;52.108;5.044;2022-09-20T01:27:49;11.70;99.90
48912;DHT22;34722;52.108;5.044;2022-09-20T01:30:22;11.70;99.90
48912;DHT22;34722;52.108;5.044;2022-09-20T01:35:15;11.80;99.90
48912;DHT22;34722;52.108;5.044;2022-09-20T01:40:55;11.70;99.90
48912;DHT22;34722;52.108;5.044;2022-09-20T01:49:04;11.70;99.90
48912;DHT22;34722;52.108;5.044;2022-09-20T02:08:07;11.60;99.90
48912;DHT22;34722;52.108;5.044;2022-09-20T02:16:52;11.50;99.90
48912;DHT22;34722;52.108;5.044;2022-09-20T02:22:08;11.30;99.90
48912;DHT22;34722;52.108;5.044;2022-09-20T02:25:06;11.30;99.90
48912;DHT22;34722;52.108;5.044;2022-09-20T02:40:25;11.40;99.90
48912;DHT22;34722;52.108;5.044;2022-09-20T02:45:51;11.50;99.90
48912;DHT22;34722;52.108;5.044;2022-09-20T02:48:23;11.50;99.90
48912;DHT22;34722;52.108;5.044;2022-09-20T02:51:04;11.50;99.90
48912;DHT22;34722;52.108;5.044;2022-09-20T02:54:05;11.40;99.90
48912;DHT22;34722;52.108;5.044;2022-09-20T03:00:00;11.30;99.90
48912;DHT22;34722;52.108;5.044;2022-09-20T03:02:59;11.30;99.90
48912;DHT22;34722;52.108;5.044;2022-09-20T03:05:42;11.20;99.90
48912;DHT22;34722;52.108;5.044;2022-09-20T03:11:21;11.10;99.90
48912;DHT22;34722;52.108;5.044;2022-09-20T03:14:10;11.10;99.90
48912;DHT22;34722;52.108;5.044;2022-09-20T03:20:19;10.90;99.90
48912;DHT22;34722;52.108;5.044;2022-09-20T03:25:49;10.70;99.90
48912;DHT22;34722;52.108;5.044;2022-09-20T03:28:56;10.70;99.90
48912;DHT22;34722;52.108;5.044;2022-09-20T03:39:38;11.10;99.90
48912;DHT22;34722;52.108;5.044;2022-09-20T03:42:22;11.20;99.90
48912;DHT22;34722;52.108;5.044;2022-09-20T03:45:21;11.30;99.90
48912;DHT22;34722;52.108;5.044;2022-09-20T03:48:00;11.30;99.90
48912;DHT22;34722;52.108;5.044;2022-09-20T04:07:15;11.60;99.90
48912;DHT22;34722;52.108;5.044;2022-09-20T04:18:03;11.70;99.90
48912;DHT22;34722;52.108;5.044;2022-09-20T04:26:21;11.60;99.90
48912;DHT22;34722;52.108;5.044;2022-09-20T04:37:02;11.50;99.90
48912;DHT22;34722;52.108;5.044;2022-09-20T04:40:03;11.60;99.90
48912;DHT22;34722;52.108;5.044;2022-09-20T05:02:41;11.40;99.90
48912;DHT22;34722;52.108;5.044;2022-09-20T05:13:36;11.20;99.90
48912;DHT22;34722;52.108;5.044;2022-09-20T05:16:28;11.20;99.90
48912;DHT22;34722;52.108;5.044;2022-09-20T05:34:41;11.10;99.90
48912;DHT22;34722;52.108;5.044;2022-09-20T05:39:53;10.90;99.90
48912;DHT22;34722;52.108;5.044;2022-09-20T05:42:47;10.90;99.90
48912;DHT22;34722;52.108;5.044;2022-09-20T05:51:26;10.60;99.90
48912;DHT22;34722;52.108;5.044;2022-09-20T05:54:23;10.50;99.90
48912;DHT22;34722;52.108;5.044;2022-09-20T06:13:03;10.70;99.90
48912;DHT22;34722;52.108;5.044;2022-09-20T06:16:02;10.90;99.90
48912;DHT22;34722;52.108;5.044;2022-09-20T06:19:10;11.10;99.90
48912;DHT22;34722;52.108;5.044;2022-09-20T06:21:54;12.80;99.90
48912;DHT22;34722;52.108;5.044;2022-09-20T06:24:43;14.00;99.90
48912;DHT22;34722;52.108;5.044;2022-09-20T06:27:21;15.60;99.90
48912;DHT22;34722;52.108;5.044;2022-09-20T06:29:54;16.80;99.90
48912;DHT22;34722;52.108;5.044;2022-09-20T06:32:22;18.00;99.90
48912;DHT22;34722;52.108;5.044;2022-09-20T06:34:49;18.20;27.50
48912;DHT22;34722;52.108;5.044;2022-09-20T06:37:26;17.80;1.00
48912;DHT22;34722;52.108;5.044;2022-09-20T06:43:21;19.40;1.00
48912;DHT22;34722;52.108;5.044;2022-09-20T06:45:48;20.50;1.00
48912;DHT22;34722;52.108;5.044;2022-09-20T06:48:14;21.50;99.90
48912;DHT22;34722;52.108;5.044;2022-09-20T06:50:41;22.00;19.80
48912;DHT22;34722;52.108;5.044;2022-09-20T06:53:30;22.70;99.90
48912;DHT22;34722;52.108;5.044;2022-09-20T06:55:57;22.90;99.90
48912;DHT22;34722;52.108;5.044;2022-09-20T06:58:24;23.10;99.90
48912;DHT22;34722;52.108;5.044;2022-09-20T07:00:50;22.00;99.90
48912;DHT22;34722;52.108;5.044;2022-09-20T07:03:16;21.20;99.90
48912;DHT22;34722;52.108;5.044;2022-09-20T07:05:44;21.20;1.00
48912;DHT22;34722;52.108;5.044;2022-09-20T07:08:11;20.70;1.00
48912;DHT22;34722;52.108;5.044;2022-09-20T07:10:37;19.60;1.00
48912;DHT22;34722;52.108;5.044;2022-09-20T07:13:04;18.60;1.00
48912;DHT22;34722;52.108;5.044;2022-09-20T07:15:31;17.60;1.00
48912;DHT22;34722;52.108;5.044;2022-09-20T07:17:58;17.10;1.00
48912;DHT22;34722;52.108;5.044;2022-09-20T07:20:25;16.80;1.00
48912;DHT22;34722;52.108;5.044;2022-09-20T07:22:51;16.50;2.70
48912;DHT22;34722;52.108;5.044;2022-09-20T07:25:18;16.10;14.30
48912;DHT22;34722;52.108;5.044;2022-09-20T07:27:45;15.80;30.50
48912;DHT22;34722;52.108;5.044;2022-09-20T07:30:12;15.80;39.00
48912;DHT22;34722;52.108;5.044;2022-09-20T07:32:39;15.60;22.40
48912;DHT22;34722;52.108;5.044;2022-09-20T07:35:08;15.60;26.60
48912;DHT22;34722;52.108;5.044;2022-09-20T07:37:41;15.50;19.20
48912;DHT22;34722;52.108;5.044;2022-09-20T07:40:09;15.60;33.10
48912;DHT22;34722;52.108;5.044;2022-09-20T07:42:36;15.60;43.90
48912;DHT22;34722;52.108;5.044;2022-09-20T07:45:02;15.70;28.00
48912;DHT22;34722;52.108;5.044;2022-09-20T07:47:28;15.70;22.60
48912;DHT22;34722;52.108;5.044;2022-09-20T07:49:56;15.60;25.30
48912;DHT22;34722;52.108;5.044;2022-09-20T07:52:22;15.70;29.10
48912;DHT22;34722;52.108;5.044;2022-09-20T07:54:48;15.80;10.90
48912;DHT22;34722;52.108;5.044;2022-09-20T07:57:15;15.90;17.90
48912;DHT22;34722;52.108;5.044;2022-09-20T07:59:41;16.00;4.00
48912;DHT22;34722;52.108;5.044;2022-09-20T08:02:13;16.20;6.10
48912;DHT22;34722;52.108;5.044;2022-09-20T08:04:39;16.30;1.00
48912;DHT22;34722;52.108;5.044;2022-09-20T08:07:05;16.50;1.00
48912;DHT22;34722;52.108;5.044;2022-09-20T08:09:31;16.50;1.00
48912;DHT22;34722;52.108;5.044;2022-09-20T08:11:56;16.70;1.00
48912;DHT22;34722;52.108;5.044;2022-09-20T08:14:22;16.70;1.00
48912;DHT22;34722;52.108;5.044;2022-09-20T08:16:49;17.00;1.00
48912;DHT22;34722;52.108;5.044;2022-09-20T08:19:21;17.50;1.00
48912;DHT22;34722;52.108;5.044;2022-09-20T08:21:50;18.00;99.90
48912;DHT22;34722;52.108;5.044;2022-09-20T08:24:17;18.30;99.90
48912;DHT22;34722;52.108;5.044;2022-09-20T08:26:43;18.60;99.90
48912;DHT22;34722;52.108;5.044;2022-09-20T08:29:15;18.50;99.90
48912;DHT22;34722;52.108;5.044;2022-09-20T08:31:41;18.40;99.90
48912;DHT22;34722;52.108;5.044;2022-09-20T08:34:09;18.00;99.90
48912;DHT22;34722;52.108;5.044;2022-09-20T08:36:39;17.80;1.00
48912;DHT22;34722;52.108;5.044;2022-09-20T08:39:06;17.60;99.90
48912;DHT22;34722;52.108;5.044;2022-09-20T08:44:06;17.30;1.00
48912;DHT22;34722;52.108;5.044;2022-09-20T08:46:38;17.20;1.00
48912;DHT22;34722;52.108;5.044;2022-09-20T08:49:06;17.10;1.00
48912;DHT22;34722;52.108;5.044;2022-09-20T08:51:37;17.00;1.00
48912;DHT22;34722;52.108;5.044;2022-09-20T08:54:06;17.00;1.00
48912;DHT22;34722;52.108;5.044;2022-09-20T08:56:35;17.00;1.00
48912;DHT22;34722;52.108;5.044;2022-09-20T08:59:02;16.80;1.00
48912;DHT22;34722;52.108;5.044;2022-09-20T09:01:29;16.90;1.00
48912;DHT22;34722;52.108;5.044;2022-09-20T09:04:15;17.00;1.00
48912;DHT22;34722;52.108;5.044;2022-09-20T09:06:42;17.20;1.00
48912;DHT22;34722;52.108;5.044;2022-09-20T09:09:22;17.30;1.00
48912;DHT22;34722;52.108;5.044;2022-09-20T09:11:51;17.50;1.00
48912;DHT22;34722;52.108;5.044;2022-09-20T09:14:29;17.60;99.90
48912;DHT22;34722;52.108;5.044;2022-09-20T09:17:20;17.90;99.90
48912;DHT22;34722;52.108;5.044;2022-09-20T09:22:43;18.50;99.90
48912;DHT22;34722;52.108;5.044;2022-09-20T09:27:55;19.10;99.90
48912;DHT22;34722;52.108;5.044;2022-09-20T09:30:33;19.10;1.00
48912;DHT22;34722;52.108;5.044;2022-09-20T09:33:21;19.30;1.00
48912;DHT22;34722;52.108;5.044;2022-09-20T09:36:15;18.80;1.00
48912;DHT22;34722;52.108;5.044;2022-09-20T09:38:44;18.10;99.90
48912;DHT22;34722;52.108;5.044;2022-09-20T09:41:31;17.60;99.90
48912;DHT22;34722;52.108;5.044;2022-09-20T09:44:05;17.40;99.90
48912;DHT22;34722;52.108;5.044;2022-09-20T09:46:37;17.70;99.90
48912;DHT22;34722;52.108;5.044;2022-09-20T09:49:24;18.40;1.00
48912;DHT22;34722;52.108;5.044;2022-09-20T09:52:13;18.40;1.00
48912;DHT22;34722;52.108;5.044;2022-09-20T09:54:57;17.90;99.90
48912;DHT22;34722;52.108;5.044;2022-09-20T10:00:13;17.00;1.00
48912;DHT22;34722;52.108;5.044;2022-09-20T10:03:11;16.70;1.00
48912;DHT22;34722;52.108;5.044;2022-09-20T10:14:33;16.50;1.00
48912;DHT22;34722;52.108;5.044;2022-09-20T10:17:43;17.10;1.00
48912;DHT22;34722;52.108;5.044;2022-09-20T10:26:22;19.60;99.90
48912;DHT22;34722;52.108;5.044;2022-09-20T10:32:03;20.30;1.00
48912;DHT22;34722;52.108;5.044;2022-09-20T10:35:11;20.10;99.90
48912;DHT22;34722;52.108;5.044;2022-09-20T10:40:47;19.60;1.00
48912;DHT22;34722;52.108;5.044;2022-09-20T10:46:42;19.10;95.20
48912;DHT22;34722;52.108;5.044;2022-09-20T10:49:31;19.10;1.00
48912;DHT22;34722;52.108;5.044;2022-09-20T10:55:02;20.20;66.30
48912;DHT22;34722;52.108;5.044;2022-09-20T10:58:03;20.70;1.00
48912;DHT22;34722;52.108;5.044;2022-09-20T11:08:46;22.50;99.90
48912;DHT22;34722;52.108;5.044;2022-09-20T11:11:26;22.50;99.90
48912;DHT22;34722;52.108;5.044;2022-09-20T11:14:11;22.30;99.90
48912;DHT22;34722;52.108;5.044;2022-09-20T11:16:52;22.30;99.90
48912;DHT22;34722;52.108;5.044;2022-09-20T11:30:19;24.00;1.00
48912;DHT22;34722;52.108;5.044;2022-09-20T11:35:47;22.70;1.00
48912;DHT22;34722;52.108;5.044;2022-09-20T11:38:36;23.40;1.00
48912;DHT22;34722;52.108;5.044;2022-09-20T11:41:13;24.10;1.00
48912;DHT22;34722;52.108;5.044;2022-09-20T11:43:41;24.90;1.00
48912;DHT22;34722;52.108;5.044;2022-09-20T11:46:32;25.50;1.00
48912;DHT22;34722;52.108;5.044;2022-09-20T11:49:20;24.40;1.00
48912;DHT22;34722;52.108;5.044;2022-09-20T11:52:07;23.80;1.00
48912;DHT22;34722;52.108;5.044;2022-09-20T11:57:39;23.90;1.00
48912;DHT22;34722;52.108;5.044;2022-09-20T12:00:06;24.40;1.00
48912;DHT22;34722;52.108;5.044;2022-09-20T12:02:44;24.80;1.00
48912;DHT22;34722;52.108;5.044;2022-09-20T12:05:33;24.30;1.00
48912;DHT22;34722;52.108;5.044;2022-09-20T12:08:06;23.40;1.00
48912;DHT22;34722;52.108;5.044;2022-09-20T12:10:36;23.00;1.00
48912;DHT22;34722;52.108;5.044;2022-09-20T12:13:19;22.50;19.40
48912;DHT22;34722;52.108;5.044;2022-09-20T12:19:44;21.80;99.90
48912;DHT22;34722;52.108;5.044;2022-09-20T12:24:27;21.60;34.90
48912;DHT22;34722;52.108;5.044;2022-09-20T12:27:54;22.20;1.00
48912;DHT22;34722;52.108;5.044;2022-09-20T12:30:17;23.10;1.00
48912;DHT22;34722;52.108;5.044;2022-09-20T12:32:47;24.10;1.00
48912;DHT22;34722;52.108;5.044;2022-09-20T12:38:36;25.30;1.00
48912;DHT22;34722;52.108;5.044;2022-09-20T12:41:06;25.70;1.00
48912;DHT22;34722;52.108;5.044;2022-09-20T12:43:36;25.70;1.00
48912;DHT22;34722;52.108;5.044;2022-09-20T12:46:04;25.40;1.00
48912;DHT22;34722;52.108;5.044;2022-09-20T12:48:37;24.90;1.00
48912;DHT22;34722;52.108;5.044;2022-09-20T12:51:40;24.50;1.00
48912;DHT22;34722;52.108;5.044;2022-09-20T12:54:24;23.80;1.00
48912;DHT22;34722;52.108;5.044;2022-09-20T12:56:50;23.80;1.00
48912;DHT22;34722;52.108;5.044;2022-09-20T12:59:24;23.20;1.00
48912;DHT22;34722;52.108;5.044;2022-09-20T13:01:53;22.50;1.00
48912;DHT22;34722;52.108;5.044;2022-09-20T13:04:38;21.60;1.00
48912;DHT22;34722;52.108;5.044;2022-09-20T13:07:45;21.00;1.00
48912;DHT22;34722;52.108;5.044;2022-09-20T13:10:23;20.50;1.00
48912;DHT22;34722;52.108;5.044;2022-09-20T13:12:57;20.10;67.00
48912;DHT22;34722;52.108;5.044;2022-09-20T13:15:23;19.80;99.90
48912;DHT22;34722;52.108;5.044;2022-09-20T13:17:52;19.20;99.90
48912;DHT22;34722;52.108;5.044;2022-09-20T13:20:22;18.90;99.90
48912;DHT22;34722;52.108;5.044;2022-09-20T13:22:49;18.60;1.00
48912;DHT22;34722;52.108;5.044;2022-09-20T13:25:17;18.30;72.60
48912;DHT22;34722;52.108;5.044;2022-09-20T13:28:06;18.10;99.90
48912;DHT22;34722;52.108;5.044;2022-09-20T13:30:34;18.10;99.90
48912;DHT22;34722;52.108;5.044;2022-09-20T13:33:21;18.00;1.00
48912;DHT22;34722;52.108;5.044;2022-09-20T13:35:50;18.00;99.90
48912;DHT22;34722;52.108;5.044;2022-09-20T13:38:19;18.20;1.00
48912;DHT22;34722;52.108;5.044;2022-09-20T13:40:48;18.50;39.90
48912;DHT22;34722;52.108;5.044;2022-09-20T13:43:42;18.80;18.10
48912;DHT22;34722;52.108;5.044;2022-09-20T13:46:10;19.20;1.00
48912;DHT22;34722;52.108;5.044;2022-09-20T13:48:36;19.50;1.00
48912;DHT22;34722;52.108;5.044;2022-09-20T13:51:02;20.00;1.00
48912;DHT22;34722;52.108;5.044;2022-09-20T13:53:29;20.20;1.00
48912;DHT22;34722;52.108;5.044;2022-09-20T13:55:55;20.40;1.00
48912;DHT22;34722;52.108;5.044;2022-09-20T13:58:25;20.50;1.00
48912;DHT22;34722;52.108;5.044;2022-09-20T14:01:01;20.70;1.00
48912;DHT22;34722;52.108;5.044;2022-09-20T14:03:28;20.90;1.00
48912;DHT22;34722;52.108;5.044;2022-09-20T14:06:06;20.90;1.00
48912;DHT22;34722;52.108;5.044;2022-09-20T14:11:22;20.60;1.00
48912;DHT22;34722;52.108;5.044;2022-09-20T14:13:55;20.40;1.00
48912;DHT22;34722;52.108;5.044;2022-09-20T14:16:34;20.30;1.00
48912;DHT22;34722;52.108;5.044;2022-09-20T14:19:07;20.10;1.00
48912;DHT22;34722;52.108;5.044;2022-09-20T14:21:34;19.90;1.00
48912;DHT22;34722;52.108;5.044;2022-09-20T14:24:05;19.90;1.00
48912;DHT22;34722;52.108;5.044;2022-09-20T14:26:42;20.10;1.00
48912;DHT22;34722;52.108;5.044;2022-09-20T14:32:01;20.30;1.00
48912;DHT22;34722;52.108;5.044;2022-09-20T14:34:37;20.20;1.00
48912;DHT22;34722;52.108;5.044;2022-09-20T14:37:12;19.90;1.00
48912;DHT22;34722;52.108;5.044;2022-09-20T14:39:55;19.50;1.00
48912;DHT22;34722;52.108;5.044;2022-09-20T14:42:41;19.20;1.00
48912;DHT22;34722;52.108;5.044;2022-09-20T14:45:23;18.90;1.00
48912;DHT22;34722;52.108;5.044;2022-09-20T14:48:30;18.80;1.00
48912;DHT22;34722;52.108;5.044;2022-09-20T14:53:48;18.50;81.30
48912;DHT22;34722;52.108;5.044;2022-09-20T14:56:15;18.30;61.30
48912;DHT22;34722;52.108;5.044;2022-09-20T14:59:03;18.10;88.60
48912;DHT22;34722;52.108;5.044;2022-09-20T15:01:33;17.90;99.90
48912;DHT22;34722;52.108;5.044;2022-09-20T15:04:18;17.70;99.90
48912;DHT22;34722;52.108;5.044;2022-09-20T15:06:44;17.60;99.90
48912;DHT22;34722;52.108;5.044;2022-09-20T15:09:11;17.60;99.90
48912;DHT22;34722;52.108;5.044;2022-09-20T15:11:41;17.50;99.90
48912;DHT22;34722;52.108;5.044;2022-09-20T15:14:11;17.50;99.90
48912;DHT22;34722;52.108;5.044;2022-09-20T15:16:41;17.60;99.90
48912;DHT22;34722;52.108;5.044;2022-09-20T15:19:08;17.70;99.90
48912;DHT22;34722;52.108;5.044;2022-09-20T15:21:34;17.60;99.90
48912;DHT22;34722;52.108;5.044;2022-09-20T15:24:01;17.40;99.90
48912;DHT22;34722;52.108;5.044;2022-09-20T15:26:29;17.40;1.00
48912;DHT22;34722;52.108;5.044;2022-09-20T15:28:57;17.40;99.90
48912;DHT22;34722;52.108;5.044;2022-09-20T15:31:23;17.50;1.00
48912;DHT22;34722;52.108;5.044;2022-09-20T15:33:51;17.40;99.90
48912;DHT22;34722;52.108;5.044;2022-09-20T15:36:18;17.30;99.90
48912;DHT22;34722;52.108;5.044;2022-09-20T15:38:43;17.30;99.90
48912;DHT22;34722;52.108;5.044;2022-09-20T15:41:10;17.30;99.90
48912;DHT22;34722;52.108;5.044;2022-09-20T15:43:38;17.30;99.90
48912;DHT22;34722;52.108;5.044;2022-09-20T15:49:44;17.30;1.00
48912;DHT22;34722;52.108;5.044;2022-09-20T15:52:15;17.40;1.00
48912;DHT22;34722;52.108;5.044;2022-09-20T15:54:50;17.40;1.00
48912;DHT22;34722;52.108;5.044;2022-09-20T15:57:19;17.30;1.00
48912;DHT22;34722;52.108;5.044;2022-09-20T15:59:45;17.20;1.00
48912;DHT22;34722;52.108;5.044;2022-09-20T16:02:31;17.20;99.90
48912;DHT22;34722;52.108;5.044;2022-09-20T16:04:58;17.20;99.90
48912;DHT22;34722;52.108;5.044;2022-09-20T16:07:24;17.10;99.90
48912;DHT22;34722;52.108;5.044;2022-09-20T16:09:54;17.00;99.90
48912;DHT22;34722;52.108;5.044;2022-09-20T16:12:22;16.90;1.00
48912;DHT22;34722;52.108;5.044;2022-09-20T16:14:56;16.80;1.00
48912;DHT22;34722;52.108;5.044;2022-09-20T16:17:22;16.70;1.00
48912;DHT22;34722;52.108;5.044;2022-09-20T16:20:08;16.60;1.00
48912;DHT22;34722;52.108;5.044;2022-09-20T16:22:55;16.50;1.00
48912;DHT22;34722;52.108;5.044;2022-09-20T16:25:21;16.40;1.00
48912;DHT22;34722;52.108;5.044;2022-09-20T16:27:47;16.30;1.00
48912;DHT22;34722;52.108;5.044;2022-09-20T16:30:16;16.20;1.00
48912;DHT22;34722;52.108;5.044;2022-09-20T16:32:42;16.10;49.70
48912;DHT22;34722;52.108;5.044;2022-09-20T16:35:08;16.00;87.00
48912;DHT22;34722;52.108;5.044;2022-09-20T16:37:37;15.90;99.90
48912;DHT22;34722;52.108;5.044;2022-09-20T16:40:16;15.70;99.90
48912;DHT22;34722;52.108;5.044;2022-09-20T16:42:44;15.70;1.00
48912;DHT22;34722;52.108;5.044;2022-09-20T16:45:21;15.60;99.90
48912;DHT22;34722;52.108;5.044;2022-09-20T16:48:09;15.40;1.00
48912;DHT22;34722;52.108;5.044;2022-09-20T16:50:35;15.30;99.90
48912;DHT22;34722;52.108;5.044;2022-09-20T16:53:03;15.20;81.50
48912;DHT22;34722;52.108;5.044;2022-09-20T16:55:35;15.10;95.20
48912;DHT22;34722;52.108;5.044;2022-09-20T16:58:01;15.00;99.90
48912;DHT22;34722;52.108;5.044;2022-09-20T17:00:27;14.80;99.90
48912;DHT22;34722;52.108;5.044;2022-09-20T17:02:56;14.70;1.00
48912;DHT22;34722;52.108;5.044;2022-09-20T17:05:22;14.60;1.00
48912;DHT22;34722;52.108;5.044;2022-09-20T17:07:48;14.50;99.90
48912;DHT22;34722;52.108;5.044;2022-09-20T17:10:15;14.40;99.90
48912;DHT22;34722;52.108;5.044;2022-09-20T17:12:41;14.40;99.90
48912;DHT22;34722;52.108;5.044;2022-09-20T17:15:09;14.30;1.00
48912;DHT22;34722;52.108;5.044;2022-09-20T17:17:40;14.30;1.00
48912;DHT22;34722;52.108;5.044;2022-09-20T17:20:06;14.20;1.00
48912;DHT22;34722;52.108;5.044;2022-09-20T17:22:33;14.10;1.00
48912;DHT22;34722;52.108;5.044;2022-09-20T17:24:59;14.00;1.00
48912;DHT22;34722;52.108;5.044;2022-09-20T17:27:25;14.00;1.00
48912;DHT22;34722;52.108;5.044;2022-09-20T17:29:51;14.00;1.00
48912;DHT22;34722;52.108;5.044;2022-09-20T17:32:20;14.00;7.80
48912;DHT22;34722;52.108;5.044;2022-09-20T17:34:47;14.10;14.00
48912;DHT22;34722;52.108;5.044;2022-09-20T17:37:13;14.20;19.40
48912;DHT22;34722;52.108;5.044;2022-09-20T17:39:39;14.30;21.70
48912;DHT22;34722;52.108;5.044;2022-09-20T17:42:05;14.30;21.40
48912;DHT22;34722;52.108;5.044;2022-09-20T17:44:31;14.40;18.60
48912;DHT22;34722;52.108;5.044;2022-09-20T17:47:02;14.40;16.50
48912;DHT22;34722;52.108;5.044;2022-09-20T17:49:28;14.50;10.80
48912;DHT22;34722;52.108;5.044;2022-09-20T17:51:55;14.50;13.30
48912;DHT22;34722;52.108;5.044;2022-09-20T17:54:22;14.60;11.10
48912;DHT22;34722;52.108;5.044;2022-09-20T17:56:50;14.60;7.20
48912;DHT22;34722;52.108;5.044;2022-09-20T17:59:17;14.60;1.00
48912;DHT22;34722;52.108;5.044;2022-09-20T18:01:45;14.60;1.00
48912;DHT22;34722;52.108;5.044;2022-09-20T18:04:12;14.60;1.00
48912;DHT22;34722;52.108;5.044;2022-09-20T18:06:53;14.70;1.00
48912;DHT22;34722;52.108;5.044;2022-09-20T18:09:24;14.70;1.00
48912;DHT22;34722;52.108;5.044;2022-09-20T18:11:51;14.70;1.00
48912;DHT22;34722;52.108;5.044;2022-09-20T18:14:23;14.70;1.00
48912;DHT22;34722;52.108;5.044;2022-09-20T18:16:54;14.70;1.00
48912;DHT22;34722;52.108;5.044;2022-09-20T18:19:22;14.70;1.00
48912;DHT22;34722;52.108;5.044;2022-09-20T18:21:48;14.60;1.00
48912;DHT22;34722;52.108;5.044;2022-09-20T18:24:14;14.50;1.00
48912;DHT22;34722;52.108;5.044;2022-09-20T18:26:40;14.40;1.00
48912;DHT22;34722;52.108;5.044;2022-09-20T18:29:07;14.30;1.00
48912;DHT22;34722;52.108;5.044;2022-09-20T18:31:40;14.30;1.00
48912;DHT22;34722;52.108;5.044;2022-09-20T18:34:14;14.20;1.00
48912;DHT22;34722;52.108;5.044;2022-09-20T18:36:45;14.10;1.00
48912;DHT22;34722;52.108;5.044;2022-09-20T18:39:16;14.10;1.00
48912;DHT22;34722;52.108;5.044;2022-09-20T18:41:41;14.00;1.00
48912;DHT22;34722;52.108;5.044;2022-09-20T18:44:10;13.90;1.00
48912;DHT22;34722;52.108;5.044;2022-09-20T18:46:41;13.80;7.00
48912;DHT22;34722;52.108;5.044;2022-09-20T18:49:08;13.70;13.50
48912;DHT22;34722;52.108;5.044;2022-09-20T18:51:36;13.60;22.70
48912;DHT22;34722;52.108;5.044;2022-09-20T18:54:02;13.60;21.80
48912;DHT22;34722;52.108;5.044;2022-09-20T18:56:33;13.50;29.80
48912;DHT22;34722;52.108;5.044;2022-09-20T18:59:04;13.50;27.40
48912;DHT22;34722;52.108;5.044;2022-09-20T19:12:06;13.10;70.20
48912;DHT22;34722;52.108;5.044;2022-09-20T19:17:22;13.00;88.30
48912;DHT22;34722;52.108;5.044;2022-09-20T19:19:59;13.00;91.00
48912;DHT22;34722;52.108;5.044;2022-09-20T19:22:52;13.00;93.30
48912;DHT22;34722;52.108;5.044;2022-09-20T19:25:26;13.00;95.70
48912;DHT22;34722;52.108;5.044;2022-09-20T19:27:56;13.00;97.70
48912;DHT22;34722;52.108;5.044;2022-09-20T19:30:22;13.00;98.90
48912;DHT22;34722;52.108;5.044;2022-09-20T19:32:48;13.00;99.90
48912;DHT22;34722;52.108;5.044;2022-09-20T19:35:28;13.00;99.90
48912;DHT22;34722;52.108;5.044;2022-09-20T19:43:50;12.90;99.90
48912;DHT22;34722;52.108;5.044;2022-09-20T19:46:45;12.90;99.90
48912;DHT22;34722;52.108;5.044;2022-09-20T20:30:35;12.70;99.90
48912;DHT22;34722;52.108;5.044;2022-09-20T20:33:01;12.70;99.90
48912;DHT22;34722;52.108;5.044;2022-09-20T20:35:30;12.60;99.90
48912;DHT22;34722;52.108;5.044;2022-09-20T20:37:56;12.60;99.90
48912;DHT22;34722;52.108;5.044;2022-09-20T20:40:22;12.60;99.90
48912;DHT22;34722;52.108;5.044;2022-09-20T20:42:55;12.60;99.90
48912;DHT22;34722;52.108;5.044;2022-09-20T20:45:26;12.60;99.90
48912;DHT22;34722;52.108;5.044;2022-09-20T20:47:56;12.60;99.90
48912;DHT22;34722;52.108;5.044;2022-09-20T20:50:26;12.60;99.90
48912;DHT22;34722;52.108;5.044;2022-09-20T20:52:53;12.60;99.90
48912;DHT22;34722;52.108;5.044;2022-09-20T20:55:20;12.60;99.90
48912;DHT22;34722;52.108;5.044;2022-09-20T20:57:53;12.60;99.90
48912;DHT22;34722;52.108;5.044;2022-09-20T21:00:26;12.60;99.90
48912;DHT22;34722;52.108;5.044;2022-09-20T21:02:59;12.60;99.90
48912;DHT22;34722;52.108;5.044;2022-09-20T21:05:26;12.60;99.90
48912;DHT22;34722;52.108;5.044;2022-09-20T21:07:53;12.50;99.90
48912;DHT22;34722;52.108;5.044;2022-09-20T21:10:20;12.50;99.90
48912;DHT22;34722;52.108;5.044;2022-09-20T21:12:47;12.40;99.90
48912;DHT22;34722;52.108;5.044;2022-09-20T21:15:15;12.40;99.90
48912;DHT22;34722;52.108;5.044;2022-09-20T21:17:42;12.40;99.90
48912;DHT22;34722;52.108;5.044;2022-09-20T21:20:08;12.40;99.90
48912;DHT22;34722;52.108;5.044;2022-09-20T21:22:34;12.40;99.90
48912;DHT22;34722;52.108;5.044;2022-09-20T21:25:00;12.30;99.90
48912;DHT22;34722;52.108;5.044;2022-09-20T21:27:26;12.40;99.90
48912;DHT22;34722;52.108;5.044;2022-09-20T21:29:53;12.30;99.90
48912;DHT22;34722;52.108;5.044;2022-09-20T21:32:19;12.30;99.90
48912;DHT22;34722;52.108;5.044;2022-09-20T21:34:45;12.30;99.90
48912;DHT22;34722;52.108;5.044;2022-09-20T21:37:11;12.30;99.90
48912;DHT22;34722;52.108;5.044;2022-09-20T21:39:37;12.30;99.90
48912;DHT22;34722;52.108;5.044;2022-09-20T21:42:02;12.40;99.90
48912;DHT22;34722;52.108;5.044;2022-09-20T21:44:31;12.40;99.90
48912;DHT22;34722;52.108;5.044;2022-09-20T21:46:57;12.40;99.90
48912;DHT22;34722;52.108;5.044;2022-09-20T21:49:22;12.50;99.90